Time;durP1;ratioP1;P1;durP2;ratioP2;P2;SDS_P1;SDS_P2;PMS_P1;PMS_P2;Temp;Humidity;BMP_temperature;BMP_pressure;BME280_temperature;BME280_humidity;BME280_pressure;Samples;Min_cycle;Max_cycle;Signal;HPM_P1;HPM_P2
2022/06/16 00:01:04;;;;;;;7.47;3.90;;;19.40;99.90;;;;;;4165504;28;20661;-90
2022/06/16 00:03:06;;;;;;;11.50;4.40;;;18.90;99.90;;;;;;4165291;28;20176;-89
2022/06/16 00:05:10;;;;;;;12.60;4.05;;;18.60;99.90;;;;;;4165078;28;20600;-89
2022/06/16 00:07:10;;;;;;;8.93;4.10;;;18.50;99.90;;;;;;4165193;28;20186;-90
2022/06/16 00:09:11;;;;;;;10.57;4.90;;;18.50;99.90;;;;;;4181402;28;20222;-89
2022/06/16 00:11:19;;;;;;;17.60;4.82;;;18.60;99.90;;;;;;4164944;28;20160;-90
2022/06/16 00:13:20;;;;;;;10.10;4.55;;;18.70;99.90;;;;;;4181463;28;20186;-89
2022/06/16 00:15:24;;;;;;;8.73;5.10;;;18.50;99.90;;;;;;4165107;28;20528;-90
2022/06/16 00:17:25;;;;;;;11.45;4.63;;;18.40;99.90;;;;;;4164743;28;20177;-90
2022/06/16 00:19:26;;;;;;;11.32;4.93;;;18.40;99.90;;;;;;4164939;28;20763;-90
2022/06/16 00:21:27;;;;;;;14.32;4.43;;;18.50;99.90;;;;;;4181556;28;20297;-89
2022/06/16 00:23:27;;;;;;;13.65;4.32;;;18.70;99.90;;;;;;4164706;28;20644;-90
2022/06/16 00:25:28;;;;;;;13.15;5.05;;;18.70;99.90;;;;;;4164540;28;20190;-90
2022/06/16 00:27:29;;;;;;;11.38;5.43;;;18.80;99.90;;;;;;4164693;28;20238;-89
2022/06/16 00:29:30;;;;;;;12.27;4.57;;;18.70;99.90;;;;;;4164500;28;20302;-90
2022/06/16 00:31:31;;;;;;;11.68;4.60;;;18.80;99.90;;;;;;4181127;28;20164;-89
2022/06/16 00:33:32;;;;;;;13.32;5.00;;;19.00;99.90;;;;;;4181458;28;20199;-89
2022/06/16 00:35:32;;;;;;;9.50;3.88;;;19.30;99.90;;;;;;4164665;28;20172;-91
2022/06/16 00:37:33;;;;;;;9.85;4.63;;;19.20;99.90;;;;;;4181223;28;20172;-90
2022/06/16 00:39:34;;;;;;;11.43;4.28;;;19.30;99.90;;;;;;4180959;28;20203;-90
2022/06/16 00:41:34;;;;;;;8.68;3.95;;;19.20;99.90;;;;;;4164599;28;20179;-90
2022/06/16 00:43:35;;;;;;;7.35;4.05;;;19.10;99.90;;;;;;4164523;28;20176;-89
2022/06/16 00:45:43;;;;;;;8.43;4.25;;;19.10;99.90;;;;;;4164722;28;20184;-90
2022/06/16 00:47:44;;;;;;;11.13;4.45;;;19.20;99.90;;;;;;4181060;28;20175;-90
2022/06/16 00:49:45;;;;;;;9.10;4.35;;;19.20;99.90;;;;;;4164543;28;20266;-89
2022/06/16 00:51:50;;;;;;;7.25;3.60;;;19.30;99.90;;;;;;4164648;28;20164;-89
2022/06/16 00:53:54;;;;;;;8.93;4.15;;;19.30;99.90;;;;;;4164572;28;20668;-90
2022/06/16 00:55:55;;;;;;;9.10;4.38;;;19.30;99.90;;;;;;4164138;28;20176;-89
2022/06/16 00:57:56;;;;;;;7.25;3.50;;;19.30;99.90;;;;;;4164506;28;20206;-89
2022/06/16 00:59:58;;;;;;;11.20;4.55;;;19.00;99.90;;;;;;4182511;28;20646;-90
2022/06/16 01:01:59;;;;;;;11.32;4.57;;;18.60;99.90;;;;;;4184761;28;20246;-89
2022/06/16 01:06:25;;;;;;;7.03;4.35;;;18.10;99.90;;;;;;4184644;28;20194;-90
2022/06/16 01:08:26;;;;;;;7.35;4.60;;;17.90;99.90;;;;;;4181714;28;20222;-89
2022/06/16 01:10:40;;;;;;;7.53;4.20;;;18.00;99.90;;;;;;4167769;28;20172;-89
2022/06/16 01:15:41;;;;;;;10.35;4.45;;;17.80;99.90;;;;;;4184122;28;20272;-89
2022/06/16 01:18:01;;;;;;;9.43;5.00;;;17.70;99.90;;;;;;4167969;28;20172;-89
2022/06/16 01:20:17;;;;;;;8.95;4.68;;;17.50;99.90;;;;;;4167766;28;20176;-89
2022/06/16 01:22:51;;;;;;;6.95;4.65;;;17.50;99.90;;;;;;4167662;28;20183;-90
2022/06/16 01:25:31;;;;;;;12.60;4.80;;;17.40;99.90;;;;;;4167854;28;20229;-90
2022/06/16 01:27:55;;;;;;;11.65;5.15;;;17.40;99.90;;;;;;4177446;28;20184;-91
2022/06/16 01:30:02;;;;;;;11.45;4.60;;;17.20;99.90;;;;;;4184056;28;20218;-89
2022/06/16 01:32:19;;;;;;;11.75;5.05;;;17.40;99.90;;;;;;4184087;28;20171;-89
2022/06/16 01:34:32;;;;;;;7.68;5.30;;;17.30;99.90;;;;;;4183816;28;20175;-89
2022/06/16 01:36:38;;;;;;;8.77;4.93;;;17.40;99.90;;;;;;4183825;28;20535;-90
2022/06/16 01:38:58;;;;;;;13.27;5.53;;;17.40;99.90;;;;;;4184118;28;20253;-90
2022/06/16 01:41:05;;;;;;;9.30;4.72;;;17.30;99.90;;;;;;4167203;28;20180;-89
2022/06/16 01:43:09;;;;;;;12.15;5.00;;;17.30;99.90;;;;;;4167348;28;20168;-90
2022/06/16 01:45:29;;;;;;;10.65;5.20;;;17.30;99.90;;;;;;4167119;28;20172;-89
2022/06/16 01:47:32;;;;;;;9.20;4.57;;;17.50;99.90;;;;;;4167522;28;20195;-89
2022/06/16 01:49:38;;;;;;;7.43;5.18;;;17.20;99.90;;;;;;4167024;28;20208;-90
2022/06/16 01:51:49;;;;;;;6.70;4.97;;;17.20;99.90;;;;;;4183843;28;20168;-90
2022/06/16 01:53:57;;;;;;;9.38;4.65;;;17.10;99.90;;;;;;4167381;28;20200;-89
2022/06/16 01:56:19;;;;;;;11.32;5.15;;;17.00;99.90;;;;;;4167203;28;20732;-90
2022/06/16 01:58:30;;;;;;;12.13;5.43;;;16.90;99.90;;;;;;4167002;28;20204;-89
2022/06/16 02:00:33;;;;;;;11.75;5.00;;;16.90;99.90;;;;;;4183628;28;20206;-90
2022/06/16 02:02:38;;;;;;;8.70;4.57;;;17.00;99.90;;;;;;4167227;28;20203;-89
2022/06/16 02:04:56;;;;;;;8.45;5.00;;;16.90;99.90;;;;;;4167161;28;20180;-90
2022/06/16 02:07:03;;;;;;;11.57;4.80;;;16.90;99.90;;;;;;4183919;28;20171;-90
2022/06/16 02:09:18;;;;;;;9.13;4.70;;;16.90;99.90;;;;;;4166927;28;20219;-89
2022/06/16 02:11:28;;;;;;;10.10;4.38;;;17.00;99.90;;;;;;4183391;28;20210;-90
2022/06/16 02:13:34;;;;;;;10.75;4.72;;;17.00;99.90;;;;;;4166944;28;20206;-90
2022/06/16 02:15:54;;;;;;;10.63;5.25;;;17.00;99.90;;;;;;4167089;28;20175;-89
2022/06/16 02:17:57;;;;;;;7.30;5.13;;;17.00;99.90;;;;;;4183271;28;20513;-89
2022/06/16 02:19:57;;;;;;;12.70;5.45;;;17.00;99.90;;;;;;4166794;28;20528;-89
2022/06/16 02:22:01;;;;;;;10.25;4.88;;;16.80;99.90;;;;;;4167094;28;20176;-90
2022/06/16 02:24:04;;;;;;;10.77;5.13;;;16.80;99.90;;;;;;4183274;28;20183;-91
2022/06/16 02:26:05;;;;;;;13.73;5.15;;;16.80;99.90;;;;;;4183372;28;20622;-90
2022/06/16 02:28:06;;;;;;;9.05;5.30;;;16.80;99.90;;;;;;4166489;28;20208;-90
2022/06/16 02:30:07;;;;;;;13.93;5.38;;;16.80;99.90;;;;;;4182928;28;20171;-90
2022/06/16 02:32:31;;;;;;;8.63;5.40;;;16.80;99.90;;;;;;4183279;28;20706;-90
2022/06/16 02:35:00;;;;;;;12.55;5.28;;;16.60;99.90;;;;;;4166725;28;20176;-90
2022/06/16 02:37:12;;;;;;;15.15;4.82;;;16.60;99.90;;;;;;4101396;29;20198;-89
2022/06/16 02:39:21;;;;;;;8.25;5.10;;;16.70;99.90;;;;;;4182824;28;20210;-91
2022/06/16 02:41:37;;;;;;;12.65;6.00;;;16.80;99.90;;;;;;4166429;28;20176;-89
2022/06/16 02:43:50;;;;;;;9.82;5.60;;;16.90;99.90;;;;;;4166542;28;20172;-90
2022/06/16 02:45:59;;;;;;;12.55;5.63;;;16.80;99.90;;;;;;4166258;28;20172;-90
2022/06/16 02:48:28;;;;;;;12.02;5.13;;;16.60;99.90;;;;;;4182712;28;20289;-90
2022/06/16 02:50:39;;;;;;;9.32;5.30;;;16.50;99.90;;;;;;4182753;28;20192;-90
2022/06/16 02:52:47;;;;;;;9.75;5.32;;;16.70;99.90;;;;;;4166125;28;20263;-89
2022/06/16 02:55:15;;;;;;;7.85;5.40;;;16.80;99.90;;;;;;4166308;28;20639;-91
2022/06/16 02:57:31;;;;;;;9.50;5.53;;;16.60;99.90;;;;;;4182808;28;20655;-89
2022/06/16 03:00:07;;;;;;;12.75;4.97;;;16.50;99.90;;;;;;4166135;28;20196;-90
2022/06/16 03:02:15;;;;;;;11.25;5.50;;;16.40;99.90;;;;;;4182371;28;20190;-90
2022/06/16 03:04:18;;;;;;;8.27;5.50;;;16.80;99.90;;;;;;4166196;28;20203;-89
2022/06/16 03:06:20;;;;;;;9.50;5.85;;;16.80;99.90;;;;;;4182634;28;20175;-89
2022/06/16 03:08:26;;;;;;;10.32;5.90;;;16.80;99.90;;;;;;4166500;28;20212;-90
2022/06/16 03:11:04;;;;;;;11.10;5.95;;;16.80;99.90;;;;;;4182583;28;20262;-89
2022/06/16 03:12:58;;;;;;;10.95;5.97;;;17.00;99.90;;;;;;4177972;28;20180;-89
2022/06/16 03:14:58;;;;;;;8.55;6.00;;;16.80;99.90;;;;;;4182413;28;20543;-90
2022/06/16 03:17:02;;;;;;;15.73;6.43;;;16.90;99.90;;;;;;4182935;28;20224;-89
2022/06/16 03:19:08;;;;;;;12.45;6.30;;;16.80;99.90;;;;;;4166785;28;20188;-90
2022/06/16 03:21:09;;;;;;;11.30;6.05;;;16.70;99.90;;;;;;4165917;28;20187;-89
2022/06/16 03:23:09;;;;;;;13.32;6.28;;;16.50;99.90;;;;;;4181505;28;20555;-91
2022/06/16 03:25:11;;;;;;;11.60;6.57;;;16.30;99.90;;;;;;4165702;28;20164;-89
2022/06/16 03:27:13;;;;;;;12.32;6.30;;;16.30;99.90;;;;;;4165430;28;20810;-89
2022/06/16 03:29:17;;;;;;;10.90;6.10;;;16.10;99.90;;;;;;4182170;28;20219;-89
2022/06/16 03:31:17;;;;;;;12.82;6.40;;;16.10;99.90;;;;;;4165830;28;20176;-90
2022/06/16 03:33:19;;;;;;;9.35;6.07;;;16.50;99.90;;;;;;4182218;28;20640;-90
2022/06/16 03:35:23;;;;;;;15.35;6.00;;;16.40;99.90;;;;;;4166248;28;20528;-89
2022/06/16 03:37:27;;;;;;;11.90;6.32;;;16.60;99.90;;;;;;4165983;28;20183;-88
2022/06/16 03:39:31;;;;;;;12.85;6.32;;;16.70;99.90;;;;;;4165780;28;20286;-90
2022/06/16 03:41:33;;;;;;;12.15;6.68;;;16.40;99.90;;;;;;4165703;28;20726;-90
2022/06/16 03:43:38;;;;;;;12.20;6.28;;;16.40;99.90;;;;;;4182131;28;20183;-90
2022/06/16 03:45:47;;;;;;;11.23;6.25;;;16.20;99.90;;;;;;4166572;28;20195;-89
2022/06/16 03:47:49;;;;;;;11.98;6.25;;;16.50;99.90;;;;;;4165528;28;20540;-90
2022/06/16 03:49:52;;;;;;;10.38;6.20;;;16.60;99.90;;;;;;4181788;28;20176;-90
2022/06/16 03:51:54;;;;;;;16.10;6.57;;;16.70;99.90;;;;;;4165583;28;20199;-89
2022/06/16 03:54:00;;;;;;;8.90;6.10;;;16.70;99.90;;;;;;4165878;28;20182;-90
2022/06/16 03:56:01;;;;;;;14.30;6.22;;;16.60;99.90;;;;;;4182320;28;20218;-89
2022/06/16 03:58:07;;;;;;;12.77;6.57;;;16.30;99.90;;;;;;4181774;28;20191;-90
2022/06/16 04:00:09;;;;;;;14.55;6.43;;;16.40;99.90;;;;;;4181899;28;20267;-90
2022/06/16 04:02:19;;;;;;;12.80;6.43;;;16.30;99.90;;;;;;4182337;28;20178;-91
2022/06/16 04:04:20;;;;;;;12.35;6.43;;;16.20;99.90;;;;;;4165213;28;20222;-90
2022/06/16 04:06:23;;;;;;;13.27;6.28;;;16.30;99.90;;;;;;4165183;28;20185;-90
2022/06/16 04:08:26;;;;;;;10.90;6.22;;;16.30;99.90;;;;;;4165186;28;20651;-90
2022/06/16 04:10:29;;;;;;;14.50;6.20;;;16.40;99.90;;;;;;4165501;28;20176;-90
2022/06/16 04:12:31;;;;;;;12.23;5.53;;;16.30;99.90;;;;;;4165220;28;20264;-89
2022/06/16 04:14:34;;;;;;;15.15;6.20;;;16.10;99.90;;;;;;4165192;28;20179;-91
2022/06/16 04:16:39;;;;;;;13.80;6.20;;;16.20;99.90;;;;;;4165552;28;20179;-91
2022/06/16 04:18:40;;;;;;;7.30;5.60;;;16.30;99.90;;;;;;4181580;28;20191;-90
2022/06/16 04:20:45;;;;;;;10.73;5.85;;;16.20;99.90;;;;;;4181728;28;20255;-90
2022/06/16 04:23:10;;;;;;;16.40;6.25;;;16.20;99.90;;;;;;4171747;28;20187;-90
2022/06/16 04:25:14;;;;;;;12.77;6.07;;;16.30;99.90;;;;;;4181864;28;20276;-90
2022/06/16 04:27:16;;;;;;;13.07;6.75;;;16.50;99.90;;;;;;4165249;28;20179;-90
2022/06/16 04:29:18;;;;;;;8.85;6.15;;;16.60;99.90;;;;;;4164853;28;20216;-90
2022/06/16 04:31:19;;;;;;;11.93;6.45;;;16.80;99.90;;;;;;4181514;28;20167;-89
2022/06/16 04:33:21;;;;;;;9.93;5.95;;;16.80;99.90;;;;;;4181258;28;20266;-90
2022/06/16 04:35:23;;;;;;;10.35;6.25;;;16.80;99.90;;;;;;4164903;28;20164;-91
2022/06/16 04:37:35;;;;;;;11.27;6.30;;;16.70;99.90;;;;;;4166185;28;20252;-91
2022/06/16 04:39:36;;;;;;;10.30;6.05;;;16.60;99.90;;;;;;4164771;28;20255;-90
2022/06/16 04:41:37;;;;;;;11.20;6.20;;;16.60;99.90;;;;;;4181446;28;20638;-91
2022/06/16 04:43:41;;;;;;;12.52;6.07;;;16.60;99.90;;;;;;4165048;28;20187;-90
2022/06/16 04:45:45;;;;;;;11.85;6.30;;;16.70;99.90;;;;;;4164959;28;20168;-87
2022/06/16 04:47:46;;;;;;;9.20;5.90;;;16.60;99.90;;;;;;4164506;28;20187;-90
2022/06/16 04:49:49;;;;;;;13.40;6.10;;;16.50;99.90;;;;;;4164523;28;20629;-89
2022/06/16 04:51:51;;;;;;;13.18;6.22;;;16.50;99.90;;;;;;4164602;28;20559;-90
2022/06/16 04:53:53;;;;;;;15.82;6.78;;;16.50;99.90;;;;;;4164679;28;20608;-89
2022/06/16 04:56:20;;;;;;;9.10;5.93;;;16.60;99.90;;;;;;4179061;28;20187;-91
2022/06/16 04:58:46;;;;;;;12.00;6.80;;;16.60;99.90;;;;;;4158693;28;20231;-91
2022/06/16 05:01:05;;;;;;;11.63;6.03;;;16.60;99.90;;;;;;4181333;28;20580;-88
2022/06/16 05:03:27;;;;;;;9.73;5.90;;;16.70;99.90;;;;;;4181183;28;20202;-91
2022/06/16 05:05:41;;;;;;;14.48;6.15;;;16.70;99.90;;;;;;4166146;28;20284;-91
2022/06/16 05:07:57;;;;;;;8.90;5.97;;;16.90;99.90;;;;;;4166188;28;20164;-90
2022/06/16 05:10:18;;;;;;;11.50;6.43;;;16.90;99.90;;;;;;4180708;28;20517;-91
2022/06/16 05:12:22;;;;;;;9.30;6.13;;;16.90;99.90;;;;;;4164929;28;20198;-91
2022/06/16 05:14:39;;;;;;;11.80;6.43;;;17.00;99.90;;;;;;4166301;28;20180;-92
2022/06/16 05:17:00;;;;;;;12.88;6.70;;;17.00;99.90;;;;;;4150789;28;20191;-93
2022/06/16 05:19:30;;;;;;;12.43;6.30;;;17.10;99.90;;;;;;4165643;28;20195;-90
2022/06/16 05:21:39;;;;;;;11.32;6.10;;;17.10;99.90;;;;;;4180953;28;20639;-91
2022/06/16 05:23:59;;;;;;;13.57;6.07;;;17.20;99.90;;;;;;4181442;28;20194;-92
2022/06/16 05:26:18;;;;;;;9.40;5.88;;;17.30;99.90;;;;;;4181345;28;20190;-89
2022/06/16 05:28:40;;;;;;;11.38;5.55;;;17.40;99.90;;;;;;4166953;28;20203;-88
2022/06/16 05:30:48;;;;;;;10.75;5.60;;;17.50;99.90;;;;;;4165233;28;20167;-90
2022/06/16 05:33:00;;;;;;;14.48;6.30;;;17.50;99.90;;;;;;4165796;28;20172;-89
2022/06/16 05:35:16;;;;;;;8.40;5.75;;;17.60;99.90;;;;;;4166396;28;20206;-90
2022/06/16 05:37:39;;;;;;;14.73;5.53;;;17.70;99.90;;;;;;4170413;28;20194;-92
2022/06/16 05:39:58;;;;;;;9.52;6.05;;;17.70;99.90;;;;;;4181145;28;20202;-90
2022/06/16 05:42:18;;;;;;;14.40;6.10;;;17.90;99.90;;;;;;4166601;28;20172;-91
2022/06/16 05:44:42;;;;;;;9.50;5.60;;;18.00;99.90;;;;;;4175451;28;20187;-91
2022/06/16 05:47:04;;;;;;;8.32;5.28;;;18.00;99.90;;;;;;4163474;28;20179;-91
2022/06/16 05:49:12;;;;;;;9.38;5.53;;;18.00;99.90;;;;;;4167846;28;20269;-89
2022/06/16 05:51:15;;;;;;;10.80;5.60;;;18.10;99.90;;;;;;4167327;28;20172;-88
2022/06/16 05:53:36;;;;;;;12.45;5.80;;;18.10;99.90;;;;;;4169771;28;20264;-89
2022/06/16 05:55:37;;;;;;;11.35;5.65;;;18.10;99.90;;;;;;4183538;28;20175;-91
2022/06/16 05:57:39;;;;;;;9.52;5.90;;;18.20;99.90;;;;;;4183760;28;20267;-88
2022/06/16 05:59:40;;;;;;;11.10;5.88;;;18.20;99.90;;;;;;4166894;28;20191;-91
2022/06/16 06:01:41;;;;;;;10.10;5.82;;;18.20;99.90;;;;;;4183567;28;20253;-91
2022/06/16 06:03:44;;;;;;;10.45;5.82;;;18.20;99.90;;;;;;4167159;28;20172;-89
2022/06/16 06:05:45;;;;;;;12.68;5.72;;;18.30;99.90;;;;;;4183566;28;20174;-91
2022/06/16 06:16:56;;;;;;;12.55;5.55;;;18.40;99.90;;;;;;4184376;28;20306;-89
2022/06/16 06:19:23;;;;;;;14.93;5.63;;;18.40;99.90;;;;;;4183214;28;20698;-90
2022/06/16 06:21:58;;;;;;;7.20;4.85;;;18.40;99.90;;;;;;4183292;28;20172;-89
2022/06/16 06:23:41;;;;;;;14.60;5.72;;;18.60;99.90;;;;;;4183028;28;20172;-90
2022/06/16 06:25:42;;;;;;;13.13;6.32;;;18.50;99.90;;;;;;4166680;28;20183;-90
2022/06/16 06:27:45;;;;;;;9.52;5.90;;;18.60;99.90;;;;;;4183024;28;20167;-91
2022/06/16 06:29:48;;;;;;;11.50;5.60;;;18.90;99.90;;;;;;4166599;28;20247;-91
2022/06/16 06:31:50;;;;;;;18.30;6.50;;;19.10;99.90;;;;;;4183269;28;20229;-90
2022/06/16 06:33:51;;;;;;;14.85;5.85;;;19.20;99.90;;;;;;4166583;28;20184;-90
2022/06/16 06:35:52;;;;;;;9.23;6.25;;;19.40;99.90;;;;;;4166695;28;20636;-91
2022/06/16 06:37:52;;;;;;;13.90;5.80;;;19.40;99.90;;;;;;4166507;28;20234;-90
2022/06/16 06:39:54;;;;;;;12.40;6.20;;;19.40;99.90;;;;;;4166562;28;20176;-90
2022/06/16 06:41:55;;;;;;;9.48;5.40;;;19.50;99.90;;;;;;4166807;28;20180;-91
2022/06/16 06:43:56;;;;;;;11.85;5.82;;;19.60;99.90;;;;;;4182873;28;20171;-90
2022/06/16 06:45:56;;;;;;;10.85;5.78;;;19.50;99.90;;;;;;4166342;28;20688;-90
2022/06/16 06:47:58;;;;;;;11.38;6.28;;;19.50;99.90;;;;;;4166275;28;20168;-90
2022/06/16 06:49:59;;;;;;;11.27;6.35;;;19.70;99.90;;;;;;4166387;28;20630;-89
2022/06/16 06:51:59;;;;;;;13.85;6.35;;;19.50;99.90;;;;;;4183124;28;20175;-91
2022/06/16 06:54:00;;;;;;;10.43;5.95;;;19.50;99.90;;;;;;4182837;28;20171;-89
2022/06/16 06:56:02;;;;;;;25.15;7.47;;;19.50;99.90;;;;;;4166448;28;20611;-90
2022/06/16 06:58:06;;;;;;;10.10;5.90;;;19.40;99.90;;;;;;4164970;28;20643;-88
2022/06/16 07:00:07;;;;;;;14.48;6.10;;;19.50;99.90;;;;;;4166381;28;20726;-89
2022/06/16 07:02:11;;;;;;;9.88;5.55;;;19.50;99.90;;;;;;4166237;28;20642;-91
2022/06/16 07:04:13;;;;;;;19.45;6.60;;;19.70;99.90;;;;;;4182753;28;20182;-91
2022/06/16 07:06:13;;;;;;;13.57;6.20;;;19.80;99.90;;;;;;4166359;28;20176;-90
2022/06/16 07:08:15;;;;;;;17.02;6.40;;;20.00;99.90;;;;;;4182600;28;20210;-89
2022/06/16 07:10:17;;;;;;;12.50;6.10;;;20.10;99.90;;;;;;4166029;28;20218;-89
2022/06/16 07:12:19;;;;;;;17.83;5.70;;;20.40;99.90;;;;;;4182533;28;20199;-90
2022/06/16 07:14:20;;;;;;;20.77;6.22;;;20.90;99.90;;;;;;4182111;28;20198;-90
2022/06/16 07:16:21;;;;;;;11.05;6.05;;;22.00;99.90;;;;;;4166061;28;20175;-91
2022/06/16 07:18:22;;;;;;;23.88;6.03;;;23.60;99.90;;;;;;4165760;28;20184;-91
2022/06/16 07:20:23;;;;;;;8.05;5.38;;;25.10;99.90;;;;;;4165937;28;20187;-91
2022/06/16 07:22:23;;;;;;;11.10;5.68;;;25.70;99.90;;;;;;4165770;28;20172;-91
2022/06/16 07:24:24;;;;;;;9.85;6.05;;;25.80;99.90;;;;;;4165830;28;20184;-89
2022/06/16 07:26:25;;;;;;;12.52;5.82;;;25.90;99.90;;;;;;4165531;28;20258;-90
2022/06/16 07:28:26;;;;;;;12.50;6.22;;;25.60;99.90;;;;;;4165615;28;20204;-91
2022/06/16 07:30:27;;;;;;;11.82;5.25;;;25.90;99.90;;;;;;4165955;28;20180;-90
2022/06/16 07:32:27;;;;;;;11.73;5.80;;;26.40;99.90;;;;;;4182483;28;20631;-91
2022/06/16 07:34:28;;;;;;;13.15;5.40;;;26.30;99.90;;;;;;4182434;28;20176;-91
2022/06/16 07:36:29;;;;;;;12.57;5.88;;;26.60;99.90;;;;;;4165571;28;20168;-91
2022/06/16 07:38:30;;;;;;;15.63;5.68;;;26.80;99.90;;;;;;4182128;28;20205;-91
2022/06/16 07:40:30;;;;;;;9.73;5.90;;;26.60;99.90;;;;;;4165621;28;20222;-91
2022/06/16 07:42:33;;;;;;;12.30;5.75;;;26.70;99.90;;;;;;4182048;28;20183;-90
2022/06/16 07:44:33;;;;;;;11.43;5.93;;;27.20;99.90;;;;;;4165471;28;20169;-91
2022/06/16 07:46:35;;;;;;;9.15;5.80;;;27.20;99.90;;;;;;4181612;28;20225;-90
2022/06/16 07:48:36;;;;;;;11.13;6.03;;;27.20;99.90;;;;;;4165189;28;20270;-90
2022/06/16 07:50:37;;;;;;;16.13;6.78;;;27.40;99.90;;;;;;4165563;28;20315;-91
2022/06/16 07:52:38;;;;;;;15.63;7.00;;;27.20;99.90;;;;;;4182124;28;20175;-92
2022/06/16 07:54:38;;;;;;;12.43;6.03;;;27.50;99.90;;;;;;4165360;28;20675;-91
2022/06/16 07:56:39;;;;;;;9.95;6.45;;;27.20;99.90;;;;;;4182079;28;20183;-91
2022/06/16 07:58:40;;;;;;;10.52;6.28;;;27.20;99.90;;;;;;4165462;28;20277;-91
2022/06/16 08:00:41;;;;;;;16.08;5.97;;;27.50;99.90;;;;;;4165521;28;20172;-91
2022/06/16 08:02:42;;;;;;;13.57;6.50;;;27.20;99.90;;;;;;4181917;28;20205;-90
2022/06/16 08:04:42;;;;;;;9.00;6.32;;;26.80;99.90;;;;;;4165256;28;20569;-91
2022/06/16 08:06:43;;;;;;;10.20;6.05;;;26.00;99.90;;;;;;4165136;28;20251;-90
2022/06/16 08:08:44;;;;;;;12.63;6.03;;;25.60;99.90;;;;;;4164517;28;20203;-92
2022/06/16 08:10:45;;;;;;;8.77;5.55;;;25.50;99.90;;;;;;4182739;28;20175;-90
2022/06/16 08:12:46;;;;;;;12.88;6.18;;;25.40;99.90;;;;;;4164974;28;20169;-91
2022/06/16 08:14:47;;;;;;;30.48;7.40;;;25.50;99.90;;;;;;4181387;28;20182;-91
2022/06/16 08:16:48;;;;;;;10.13;5.38;;;25.50;99.90;;;;;;4165134;28;20175;-91
2022/06/16 08:18:50;;;;;;;10.15;5.65;;;25.50;99.90;;;;;;4181458;28;20191;-91
2022/06/16 08:20:52;;;;;;;11.00;5.43;;;25.50;99.90;;;;;;4165147;28;20196;-90
2022/06/16 08:22:53;;;;;;;14.30;5.57;;;25.80;99.90;;;;;;4164936;28;20583;-91
2022/06/16 08:24:55;;;;;;;7.82;4.13;;;26.20;99.90;;;;;;4181266;28;20202;-91
2022/06/16 08:26:56;;;;;;;12.88;4.47;;;26.60;99.90;;;;;;4181234;28;20176;-90
2022/06/16 08:28:58;;;;;;;12.45;4.72;;;26.80;99.90;;;;;;4181273;28;20222;-91
2022/06/16 08:31:01;;;;;;;11.40;4.30;;;26.90;99.90;;;;;;4181569;28;20236;-90
2022/06/16 08:33:02;;;;;;;15.18;5.05;;;27.20;99.90;;;;;;4164995;28;20183;-88
2022/06/16 08:35:03;;;;;;;17.00;5.03;;;27.00;99.90;;;;;;4164668;28;20164;-90
2022/06/16 08:37:05;;;;;;;25.92;6.07;;;27.10;99.90;;;;;;4164691;28;20180;-90
2022/06/16 08:39:07;;;;;;;26.17;5.53;;;27.10;99.90;;;;;;4181279;28;20223;-90
2022/06/16 08:41:15;;;;;;;7.25;4.10;;;27.20;99.90;;;;;;4197711;28;20536;-91
2022/06/16 08:43:28;;;;;;;10.85;3.75;;;27.00;99.90;;;;;;4197564;28;20292;-91
2022/06/16 08:45:37;;;;;;;8.65;3.40;;;27.00;99.90;;;;;;4181041;28;20175;-91
2022/06/16 08:48:08;;;;;;;18.15;4.20;;;26.80;99.90;;;;;;4181477;28;20183;-89
2022/06/16 08:51:04;;;;;;;9.65;3.95;;;26.80;99.90;;;;;;4181289;28;20568;-90
2022/06/16 08:53:30;;;;;;;8.40;3.78;;;27.20;99.90;;;;;;4136977;28;20218;-89
2022/06/16 08:56:09;;;;;;;8.82;4.22;;;27.80;99.90;;;;;;4181103;28;20207;-90
2022/06/16 08:58:53;;;;;;;24.60;3.70;;;28.20;99.90;;;;;;4099363;29;20198;-90
2022/06/16 09:01:10;;;;;;;115.78;11.95;;;28.80;99.90;;;;;;4176716;28;20264;-89
2022/06/16 09:03:28;;;;;;;14.27;3.90;;;29.40;99.90;;;;;;4164733;28;20680;-91
2022/06/16 09:05:47;;;;;;;7.57;3.90;;;30.50;99.90;;;;;;4181064;28;20573;-90
2022/06/16 09:07:48;;;;;;;8.35;3.40;;;30.10;99.90;;;;;;4181012;28;20174;-90
2022/06/16 09:10:14;;;;;;;5.72;4.00;;;29.20;99.90;;;;;;4182038;28;20245;-89
2022/06/16 09:12:49;;;;;;;10.73;3.92;;;28.60;99.90;;;;;;4157652;28;20255;-90
2022/06/16 09:15:11;;;;;;;8.65;3.40;;;28.20;99.90;;;;;;4164381;28;20735;-90
2022/06/16 09:17:44;;;;;;;12.20;3.42;;;27.90;99.90;;;;;;4164281;28;20614;-91
2022/06/16 09:20:05;;;;;;;6.13;3.20;;;28.00;99.90;;;;;;4164134;28;20202;-89
2022/06/16 09:22:15;;;;;;;10.15;3.53;;;27.80;99.90;;;;;;4167752;28;20253;-91
2022/06/16 09:24:39;;;;;;;7.63;3.40;;;28.10;99.90;;;;;;4167557;28;20176;-90
2022/06/16 09:26:43;;;;;;;8.38;3.63;;;28.30;99.90;;;;;;4167812;28;20227;-89
2022/06/16 09:28:56;;;;;;;25.85;4.35;;;28.70;99.90;;;;;;4167573;28;20691;-90
2022/06/16 09:31:00;;;;;;;7.60;2.75;;;28.50;99.90;;;;;;4184162;28;20171;-90
2022/06/16 09:33:06;;;;;;;9.48;2.75;;;28.50;99.90;;;;;;4184171;28;20175;-91
2022/06/16 09:35:14;;;;;;;7.70;2.65;;;28.50;99.90;;;;;;4167672;28;20176;-91
2022/06/16 09:37:40;;;;;;;6.53;3.20;;;28.20;99.90;;;;;;4183962;28;20178;-90
2022/06/16 09:39:48;;;;;;;8.80;2.75;;;27.70;99.90;;;;;;4167436;28;20299;-89
2022/06/16 09:44:34;;;;;;;44.70;6.88;;;27.30;99.90;;;;;;4184968;28;20171;-90
2022/06/16 09:46:40;;;;;;;7.10;2.65;;;27.20;99.90;;;;;;4167400;28;20588;-89
2022/06/16 09:48:55;;;;;;;8.23;3.22;;;27.00;99.90;;;;;;4167267;28;20291;-90
2022/06/16 09:51:14;;;;;;;13.57;3.35;;;26.90;99.90;;;;;;4167474;28;20173;-90
2022/06/16 09:53:31;;;;;;;8.38;3.20;;;26.90;99.90;;;;;;4183848;28;20164;-90
2022/06/16 09:55:39;;;;;;;9.10;2.30;;;27.00;99.90;;;;;;4184295;28;20249;-90
2022/06/16 09:57:47;;;;;;;8.73;2.33;;;27.10;99.90;;;;;;4183881;28;20254;-90
2022/06/16 10:00:09;;;;;;;6.07;2.60;;;27.30;99.90;;;;;;4167240;28;20223;-89
2022/06/16 10:02:33;;;;;;;4.95;2.85;;;27.60;99.90;;;;;;4184001;28;20278;-90
2022/06/16 10:04:34;;;;;;;9.65;3.67;;;27.30;99.90;;;;;;4167142;28;20214;-91
2022/06/16 10:07:06;;;;;;;9.55;2.63;;;27.20;99.90;;;;;;4183564;28;20538;-91
2022/06/16 10:09:26;;;;;;;31.20;3.83;;;27.30;99.90;;;;;;4184438;28;20215;-90
2022/06/16 10:11:42;;;;;;;4.45;2.28;;;27.50;99.90;;;;;;4183519;28;20171;-90
2022/06/16 10:14:11;;;;;;;54.60;4.47;;;27.70;99.90;;;;;;4183376;28;20186;-91
2022/06/16 10:16:26;;;;;;;6.10;3.15;;;28.50;99.90;;;;;;4183452;28;20270;-91
2022/06/16 10:18:26;;;;;;;5.22;2.60;;;28.50;99.90;;;;;;4184446;28;20187;-89
2022/06/16 10:20:28;;;;;;;6.30;2.42;;;28.30;99.90;;;;;;4166809;28;20208;-90
2022/06/16 10:22:31;;;;;;;5.00;2.47;;;28.20;99.90;;;;;;4183434;28;20171;-90
2022/06/16 10:24:39;;;;;;;5.97;2.45;;;28.10;99.90;;;;;;4183232;28;20217;-90
2022/06/16 10:26:40;;;;;;;6.68;2.70;;;27.60;99.90;;;;;;4183404;28;20666;-90
2022/06/16 10:28:58;;;;;;;19.17;2.75;;;27.20;99.90;;;;;;4166736;28;20235;-89
2022/06/16 10:31:02;;;;;;;8.43;2.53;;;26.80;99.90;;;;;;4183056;28;20232;-91
2022/06/16 10:33:16;;;;;;;7.20;2.72;;;26.00;99.90;;;;;;4183568;28;20171;-91
2022/06/16 10:35:20;;;;;;;6.22;2.58;;;25.50;99.90;;;;;;4166460;28;20191;-91
2022/06/16 10:37:26;;;;;;;9.82;2.63;;;25.00;99.90;;;;;;4167096;28;20172;-91
2022/06/16 10:39:38;;;;;;;9.77;2.45;;;24.80;99.90;;;;;;4199818;28;20195;-89
2022/06/16 10:41:52;;;;;;;6.22;3.00;;;24.90;99.90;;;;;;4183036;28;20262;-91
2022/06/16 10:43:54;;;;;;;8.57;2.70;;;25.00;99.90;;;;;;4166526;28;20176;-90
2022/06/16 10:46:06;;;;;;;7.90;3.17;;;25.10;99.90;;;;;;4183074;28;20184;-91
2022/06/16 10:48:28;;;;;;;9.10;2.80;;;25.10;99.90;;;;;;4166285;28;20178;-91
2022/06/16 10:50:39;;;;;;;5.70;2.40;;;25.30;99.90;;;;;;4183013;28;20675;-92
2022/06/16 10:52:42;;;;;;;6.95;2.50;;;25.30;99.90;;;;;;4166335;28;20203;-90
2022/06/16 10:55:08;;;;;;;12.70;2.80;;;25.10;99.90;;;;;;4183118;28;20172;-91
2022/06/16 10:57:19;;;;;;;16.88;3.03;;;25.20;99.90;;;;;;4157321;28;20184;-91
2022/06/16 10:59:27;;;;;;;6.80;2.90;;;25.10;99.90;;;;;;4166255;28;20204;-90
2022/06/16 11:01:41;;;;;;;6.10;2.53;;;24.60;99.90;;;;;;4166461;28;20198;-90
2022/06/16 11:04:02;;;;;;;4.68;1.92;;;24.90;99.90;;;;;;4166291;28;20168;-91
2022/06/16 11:06:06;;;;;;;3.83;1.95;;;25.50;99.90;;;;;;4166231;28;20176;-92
2022/06/16 11:08:10;;;;;;;8.57;2.33;;;25.40;99.90;;;;;;4166242;28;20604;-91
2022/06/16 11:10:16;;;;;;;8.32;2.05;;;25.30;99.90;;;;;;4166195;28;20184;-91
2022/06/16 11:12:21;;;;;;;6.93;2.08;;;25.40;99.90;;;;;;4166057;28;20175;-91
2022/06/16 11:14:31;;;;;;;37.25;4.05;;;25.50;99.90;;;;;;4166120;28;20175;-91
2022/06/16 11:16:37;;;;;;;5.10;2.10;;;25.40;99.90;;;;;;4165841;28;20242;-91
2022/06/16 11:18:39;;;;;;;6.32;2.20;;;25.60;99.90;;;;;;4165790;28;20203;-91